»·PEaware :: DAL213 KPDX-KRDD

DAL213 :: KPDX-KRDD

FLIGHT INFORMATION

Flight Status: Arrived
Operator:
Delta Air Lines
More flights by this operator :: More flights under this callsign
Pilot: Nico L. (9332)
Aircraft: BOEING 737-800
(B738)
More flights by this aircraft type
Origin: KPDX Portland Intl
United States
Destination: KRDD Redding Mun
United States
More flights between these airports :: More routes between these airports
Route: +EUG
File this flight plan on PilotEdge
Remarks: Live Streaming on Twitch "DAL213" and YT
Altitude:
(Current/Filed)
35,000ft
Speed:
(Current/Filed)
400kts
Departed: 26-Feb-19 01:46 PM
Arrived: 26-Feb-19 02:44 PM
Distance/Time
Traveled:
305nm/0:58
Distance/Time
To Go:
Arrived

Flight Plot

Page will automatically refresh every two minutes.

Flight plan parsing failed; only flown route is shown


Map Options




Map Legend


Flown Route
Filed Route
Departure Airport
Arrival Airport
Navaid (VOR, NDB)
Fix

Horizontal Profiles

Position Reports

Time Latitude Longitude Heading Altitude Ground
Speed
26-Feb-19 13:32 45.590613 -122.599434 198 39ft 0kts
26-Feb-19 13:33 45.590613 -122.599434 198 39ft 0kts
26-Feb-19 13:34 45.590613 -122.599434 198 39ft 0kts
26-Feb-19 13:35 45.590613 -122.599434 198 39ft 0kts
26-Feb-19 13:36 45.590613 -122.599434 198 39ft 0kts
26-Feb-19 13:37 45.590613 -122.599434 198 39ft 0kts
26-Feb-19 13:38 45.591001 -122.599063 233 39ft 1kts
26-Feb-19 13:39 45.591005 -122.599056 233 39ft 0kts
26-Feb-19 13:40 45.591005 -122.599056 233 39ft 0kts
26-Feb-19 13:41 45.591005 -122.599056 233 39ft 0kts
26-Feb-19 13:43 45.591004 -122.599057 233 39ft 0kts
26-Feb-19 13:44 45.592738 -122.599834 35 39ft 19kts
26-Feb-19 13:45 45.594259 -122.597827 43 39ft 0kts
26-Feb-19 13:46 45.594108 -122.593808 119 39ft 65kts
26-Feb-19 13:47 45.576014 -122.547813 117 1832ft 166kts
26-Feb-19 13:48 45.548480 -122.479793 117 4086ft 232kts
26-Feb-19 13:49 45.498019 -122.429840 191 7453ft 262kts
26-Feb-19 13:50 45.426908 -122.471000 201 10551ft 291kts
26-Feb-19 13:51 45.346756 -122.518676 203 13459ft 316kts
26-Feb-19 13:52 45.265116 -122.566600 206 17142ft 318kts
26-Feb-19 13:53 45.183200 -122.614516 208 20694ft 319kts
26-Feb-19 13:54 45.100922 -122.662507 210 23800ft 321kts
26-Feb-19 13:55 45.017388 -122.711084 210 26289ft 328kts
26-Feb-19 13:56 44.931233 -122.761013 210 28299ft 339kts
26-Feb-19 13:57 44.842945 -122.812020 210 29990ft 347kts
26-Feb-19 13:58 44.751770 -122.864489 209 31272ft 360kts
26-Feb-19 13:59 44.657776 -122.918422 209 32278ft 371kts
26-Feb-19 14:00 44.561684 -122.973343 209 33408ft 374kts
26-Feb-19 14:01 44.464667 -123.028597 209 34481ft 377kts
26-Feb-19 14:02 44.366542 -123.084300 208 34999ft 385kts
26-Feb-19 14:02 44.283705 -123.131142 208 34999ft 384kts
26-Feb-19 14:03 44.185269 -123.186641 208 34988ft 378kts
26-Feb-19 14:04 44.081460 -123.212184 179 35011ft 408kts
26-Feb-19 14:06 43.949763 -123.176245 180 34991ft 413kts
26-Feb-19 14:06 43.856215 -123.150902 180 34976ft 410kts
26-Feb-19 14:07 43.744371 -123.120711 180 34974ft 410kts
26-Feb-19 14:08 43.632215 -123.090534 180 34963ft 410kts
26-Feb-19 14:09 43.520554 -123.060616 180 34949ft 409kts
26-Feb-19 14:10 43.408731 -123.030759 181 34927ft 408kts
26-Feb-19 14:11 43.297598 -123.001203 181 34924ft 407kts
26-Feb-19 14:12 43.186631 -122.971804 181 34910ft 407kts
26-Feb-19 14:13 43.075047 -122.942345 181 34886ft 407kts
26-Feb-19 14:14 42.963928 -122.913116 181 34875ft 406kts
26-Feb-19 14:15 42.852755 -122.883983 181 34857ft 405kts
26-Feb-19 14:16 42.742139 -122.855105 182 34873ft 405kts
26-Feb-19 14:17 42.630926 -122.826170 182 34882ft 406kts
26-Feb-19 14:18 42.520126 -122.797451 182 34863ft 405kts
26-Feb-19 14:19 42.409407 -122.768855 182 34872ft 406kts
26-Feb-19 14:20 42.298168 -122.740231 182 34875ft 406kts
26-Feb-19 14:21 42.187315 -122.711801 183 34073ft 402kts
26-Feb-19 14:22 42.077535 -122.683760 183 33075ft 401kts
26-Feb-19 14:23 41.968232 -122.655927 183 32091ft 401kts
26-Feb-19 14:24 41.858507 -122.628084 182 31079ft 402kts
26-Feb-19 14:25 41.748276 -122.600211 182 30081ft 402kts
26-Feb-19 14:26 41.639313 -122.572756 181 29077ft 397kts
26-Feb-19 14:27 41.531142 -122.544760 178 28064ft 389kts
26-Feb-19 14:28 41.431009 -122.510908 176 24523ft 365kts
26-Feb-19 14:29 41.338165 -122.479370 177 23717ft 324kts
26-Feb-19 14:30 41.249013 -122.448759 175 20794ft 325kts
26-Feb-19 14:31 41.162185 -122.419028 175 17238ft 315kts
26-Feb-19 14:32 41.081667 -122.392032 175 14981ft 282kts
26-Feb-19 14:33 41.008960 -122.369783 173 13599ft 263kts
26-Feb-19 14:34 40.937132 -122.345605 170 10363ft 260kts
26-Feb-19 14:35 40.866613 -122.322217 169 8314ft 260kts
26-Feb-19 14:36 40.799457 -122.301417 169 6071ft 232kts
26-Feb-19 14:37 40.737063 -122.295573 178 5355ft 218kts
26-Feb-19 14:38 40.678887 -122.294744 177 3995ft 203kts
26-Feb-19 14:39 40.631584 -122.295782 174 2875ft 144kts
26-Feb-19 14:40 40.595230 -122.295074 173 2155ft 122kts
26-Feb-19 14:41 40.560882 -122.295504 177 1437ft 125kts
26-Feb-19 14:42 40.525616 -122.294876 177 649ft 123kts
26-Feb-19 14:43 40.503953 -122.294859 180 511ft 20kts
26-Feb-19 14:44 40.501751 -122.295744 315 511ft 0kts
26-Feb-19 14:45 40.502442 -122.296349 332 511ft 0kts
26-Feb-19 14:46 40.505665 -122.298417 352 511ft 12kts
26-Feb-19 14:47 40.506182 -122.299051 271 511ft 0kts
26-Feb-19 14:48 40.506182 -122.299051 271 511ft 0kts
26-Feb-19 14:49 40.506182 -122.299051 271 511ft 0kts
26-Feb-19 14:50 40.506182 -122.299051 271 511ft 0kts
26-Feb-19 14:51 40.506182 -122.299051 271 511ft 0kts
26-Feb-19 14:52 40.506182 -122.299051 271 511ft 0kts
26-Feb-19 14:53 40.506182 -122.299051 271 511ft 0kts
26-Feb-19 14:54 40.506182 -122.299051 271 511ft 0kts
26-Feb-19 14:55 40.506182 -122.299051 271 511ft 0kts

Navigation Log

Ident Type
Flight plan parsing failed, navigation log unavailable